createdAt,value
2017-12-16T00:00:42.995Z,997.42
2017-12-16T00:01:42.991Z,997.42
2017-12-16T00:02:42.980Z,997.37
2017-12-16T00:03:42.981Z,997.40
2017-12-16T00:04:42.974Z,997.39
2017-12-16T00:05:42.983Z,997.39
2017-12-16T00:06:42.966Z,997.41
2017-12-16T00:07:42.974Z,997.39
2017-12-16T00:08:42.965Z,997.38
2017-12-16T00:09:42.960Z,997.41
2017-12-16T00:10:42.956Z,997.44
2017-12-16T00:11:42.956Z,997.45
2017-12-16T00:12:42.943Z,997.45
2017-12-16T00:13:42.943Z,997.46
2017-12-16T00:14:42.942Z,997.44
2017-12-16T00:15:42.944Z,997.46
2017-12-16T00:16:42.938Z,997.42
2017-12-16T00:17:42.932Z,997.49
2017-12-16T00:18:42.930Z,997.47
2017-12-16T00:19:42.916Z,997.48
2017-12-16T00:20:42.919Z,997.50
2017-12-16T00:21:42.909Z,997.47
2017-12-16T00:22:42.910Z,997.45
2017-12-16T00:23:42.904Z,997.48
2017-12-16T00:24:42.900Z,997.49
2017-12-16T00:25:42.952Z,997.50
2017-12-16T00:26:42.912Z,997.48
2017-12-16T00:27:42.892Z,997.50
2017-12-16T00:28:42.885Z,997.49
2017-12-16T00:29:42.882Z,997.49
2017-12-16T00:30:42.879Z,997.48
2017-12-16T00:31:42.875Z,997.51
2017-12-16T00:32:42.931Z,997.51
2017-12-16T00:33:42.868Z,997.52
2017-12-16T00:34:42.926Z,997.52
2017-12-16T00:35:42.860Z,997.52
2017-12-16T00:36:42.857Z,997.49
2017-12-16T00:37:42.858Z,997.53
2017-12-16T00:38:42.850Z,997.54
2017-12-16T00:39:42.854Z,997.56
2017-12-16T00:40:42.844Z,997.54
2017-12-16T00:41:42.848Z,997.54
2017-12-16T00:42:42.842Z,997.59
2017-12-16T00:43:42.835Z,997.56
2017-12-16T00:44:42.826Z,997.56
2017-12-16T00:45:42.828Z,997.58
2017-12-16T00:46:42.834Z,997.57
2017-12-16T00:47:42.816Z,997.56
2017-12-16T00:48:42.814Z,997.61
2017-12-16T00:49:42.821Z,997.56
2017-12-16T00:50:42.818Z,997.55
2017-12-16T00:51:42.811Z,997.58
2017-12-16T00:52:42.904Z,997.57
2017-12-16T00:53:42.794Z,997.59
2017-12-16T00:54:42.791Z,997.59
2017-12-16T00:55:42.787Z,997.55
2017-12-16T00:56:42.784Z,997.61
2017-12-16T00:57:42.787Z,997.60
2017-12-16T00:58:42.777Z,997.63
2017-12-16T00:59:43.691Z,997.62
2017-12-16T01:00:42.774Z,997.64
2017-12-16T01:01:42.776Z,997.68
2017-12-16T01:02:42.761Z,997.65
2017-12-16T01:03:42.763Z,997.67
2017-12-16T01:04:42.756Z,997.67
2017-12-16T01:05:42.755Z,997.66
2017-12-16T01:06:42.751Z,997.65
2017-12-16T01:07:42.748Z,997.64
2017-12-16T01:08:42.752Z,997.69
2017-12-16T01:09:42.740Z,997.68
2017-12-16T01:10:42.732Z,997.75
2017-12-16T01:11:42.730Z,997.78
2017-12-16T01:12:42.737Z,997.78
2017-12-16T01:13:42.721Z,997.80
2017-12-16T01:14:42.716Z,997.77
2017-12-16T01:15:42.716Z,997.76
2017-12-16T01:16:42.712Z,997.74
2017-12-16T01:17:42.706Z,997.77
2017-12-16T01:18:42.706Z,997.76
2017-12-16T01:21:42.787Z,997.79
2017-12-16T01:22:42.792Z,997.82
2017-12-16T01:23:42.788Z,997.81
2017-12-16T01:24:42.787Z,997.85
2017-12-16T01:25:42.720Z,997.84
2017-12-16T01:28:14.794Z,997.85
2017-12-16T01:29:14.755Z,997.89
2017-12-16T01:30:14.746Z,997.91
2017-12-16T01:31:14.742Z,997.90
2017-12-16T01:32:14.738Z,997.90
2017-12-16T01:33:14.734Z,997.91
2017-12-16T01:34:14.735Z,997.94
2017-12-16T01:35:14.730Z,997.96
2017-12-16T01:36:14.727Z,997.91
2017-12-16T01:37:14.731Z,997.98
2017-12-16T01:38:14.713Z,997.98
2017-12-16T01:39:14.710Z,997.97
2017-12-16T01:40:14.706Z,997.98
2017-12-16T01:41:14.705Z,997.99
2017-12-16T01:42:14.696Z,998.00
2017-12-16T01:43:14.695Z,998.04
2017-12-16T01:44:14.695Z,998.02
2017-12-16T01:45:14.685Z,998.03
2017-12-16T01:46:14.684Z,998.07
2017-12-16T01:47:14.683Z,998.07
2017-12-16T01:49:36.551Z,998.07
2017-12-16T01:50:45.762Z,998.09
2017-12-16T01:52:29.891Z,998.06
2017-12-16T01:54:50.447Z,998.12
2017-12-16T01:55:50.408Z,998.13
2017-12-16T01:56:50.409Z,998.11
2017-12-16T01:57:50.405Z,998.18
2017-12-16T01:58:50.400Z,998.15
2017-12-16T01:59:50.391Z,998.17
2017-12-16T02:00:50.396Z,998.15
2017-12-16T02:01:50.388Z,998.18
2017-12-16T02:02:50.382Z,998.16
2017-12-16T02:03:50.386Z,998.17
2017-12-16T02:04:50.375Z,998.18
2017-12-16T02:05:50.372Z,998.19
2017-12-16T02:06:50.368Z,998.23
2017-12-16T02:07:50.364Z,998.17
2017-12-16T02:08:50.358Z,998.22
2017-12-16T02:09:50.361Z,998.21
2017-12-16T02:10:50.352Z,998.17
2017-12-16T02:11:50.349Z,998.21
2017-12-16T02:12:50.342Z,998.21
2017-12-16T02:13:50.348Z,998.24
2017-12-16T02:14:50.341Z,998.27
2017-12-16T02:15:50.332Z,998.24
2017-12-16T02:16:50.335Z,998.25
2017-12-16T02:17:58.953Z,998.27
2017-12-16T02:19:43.713Z,998.28
2017-12-16T02:20:43.682Z,998.27
2017-12-16T02:21:43.679Z,998.29
2017-12-16T02:22:43.672Z,998.29
2017-12-16T02:23:43.672Z,998.36
2017-12-16T02:24:43.674Z,998.31
2017-12-16T02:25:43.670Z,998.30
2017-12-16T02:26:43.661Z,998.32
2017-12-16T02:27:43.656Z,998.31
2017-12-16T02:28:43.652Z,998.33
2017-12-16T02:29:43.645Z,998.31
2017-12-16T02:30:43.646Z,998.35
2017-12-16T02:31:43.640Z,998.34
2017-12-16T02:32:43.641Z,998.32
2017-12-16T02:33:43.632Z,998.33
2017-12-16T02:34:43.631Z,998.37
2017-12-16T02:35:43.631Z,998.34
2017-12-16T02:36:43.626Z,998.37
2017-12-16T02:37:43.615Z,998.37
2017-12-16T02:38:43.613Z,998.39
2017-12-16T02:39:43.607Z,998.36
2017-12-16T02:40:43.606Z,998.41
2017-12-16T02:41:43.606Z,998.37
2017-12-16T02:42:43.594Z,998.33
2017-12-16T02:43:43.601Z,998.39
2017-12-16T02:44:43.591Z,998.36
2017-12-16T02:45:52.270Z,998.33
2017-12-16T02:47:37.011Z,998.38
2017-12-16T02:51:34.343Z,998.31
2017-12-16T02:52:43.037Z,998.28
2017-12-16T02:54:27.733Z,998.30
2017-12-16T02:55:27.686Z,998.29
2017-12-16T02:56:27.680Z,998.32
2017-12-16T02:57:27.675Z,998.31
2017-12-16T02:58:27.669Z,998.32
2017-12-16T02:59:27.662Z,998.32
2017-12-16T03:00:27.665Z,998.28
2017-12-16T03:01:27.653Z,998.31
2017-12-16T03:02:27.652Z,998.30
2017-12-16T03:03:27.646Z,998.29
2017-12-16T03:04:27.649Z,998.27
2017-12-16T03:05:27.646Z,998.30
2017-12-16T03:06:27.637Z,998.26
2017-12-16T03:07:27.630Z,998.26
2017-12-16T03:08:27.625Z,998.27
2017-12-16T03:09:27.626Z,998.28
2017-12-16T03:10:27.620Z,998.31
2017-12-16T03:11:27.611Z,998.19
2017-12-16T03:12:27.613Z,998.26
2017-12-16T03:13:27.611Z,998.26
2017-12-16T03:14:27.604Z,998.24
2017-12-16T03:15:27.597Z,998.27
2017-12-16T03:16:27.595Z,998.25
2017-12-16T03:17:27.593Z,998.27
2017-12-16T03:18:27.594Z,998.30
2017-12-16T03:19:27.586Z,998.28
2017-12-16T03:20:27.579Z,998.26
2017-12-16T03:21:27.581Z,998.27
2017-12-16T03:22:27.572Z,998.25
2017-12-16T03:23:27.567Z,998.22
2017-12-16T03:24:27.570Z,998.24
2017-12-16T03:25:27.564Z,998.22
2017-12-16T03:26:27.565Z,998.28
2017-12-16T03:27:27.559Z,998.29
2017-12-16T03:28:27.547Z,998.29
2017-12-16T03:29:27.542Z,998.28
2017-12-16T03:30:27.550Z,998.29
2017-12-16T03:31:27.536Z,998.26
2017-12-16T03:32:27.534Z,998.29
2017-12-16T03:33:27.532Z,998.30
2017-12-16T03:34:27.525Z,998.33
2017-12-16T03:35:27.524Z,998.36
2017-12-16T03:36:27.517Z,998.36
2017-12-16T03:37:27.515Z,998.39
2017-12-16T03:38:27.508Z,998.44
2017-12-16T03:39:27.505Z,998.45
2017-12-16T03:40:27.500Z,998.46
2017-12-16T03:41:27.494Z,998.44
2017-12-16T03:42:27.492Z,998.47
2017-12-16T03:43:27.492Z,998.45
2017-12-16T03:44:27.482Z,998.44
2017-12-16T03:45:27.483Z,998.45
2017-12-16T03:46:27.480Z,998.41
2017-12-16T03:47:27.473Z,998.43
2017-12-16T03:48:27.469Z,998.39
2017-12-16T03:49:27.465Z,998.41
2017-12-16T03:50:27.474Z,998.43
2017-12-16T03:51:27.454Z,998.36
2017-12-16T03:52:27.449Z,998.41
2017-12-16T03:53:27.453Z,998.38
2017-12-16T03:54:27.443Z,998.40
2017-12-16T03:55:27.439Z,998.39
2017-12-16T03:56:27.438Z,998.39
2017-12-16T03:57:27.433Z,998.40
2017-12-16T03:58:27.434Z,998.41
2017-12-16T03:59:27.427Z,998.47
2017-12-16T04:00:27.421Z,998.43
2017-12-16T04:01:27.418Z,998.44
2017-12-16T04:02:27.423Z,998.44
2017-12-16T04:03:27.403Z,998.44
2017-12-16T04:04:27.410Z,998.43
2017-12-16T04:05:27.402Z,998.49
2017-12-16T04:06:27.390Z,998.47
2017-12-16T04:07:28.267Z,998.54
2017-12-16T04:08:27.385Z,998.52
2017-12-16T04:09:27.378Z,998.50
2017-12-16T04:10:27.375Z,998.43
2017-12-16T04:11:27.374Z,998.44
2017-12-16T04:12:27.371Z,998.44
2017-12-16T04:13:27.362Z,998.51
2017-12-16T04:14:27.365Z,998.49
2017-12-16T04:15:27.352Z,998.48
2017-12-16T04:16:27.355Z,998.42
2017-12-16T04:17:27.345Z,998.47
2017-12-16T04:18:27.340Z,998.48
2017-12-16T04:19:27.336Z,998.51
2017-12-16T04:20:27.335Z,998.50
2017-12-16T04:21:27.332Z,998.56
2017-12-16T04:22:27.324Z,998.60
2017-12-16T04:23:27.322Z,998.59
2017-12-16T04:24:27.314Z,998.62
2017-12-16T04:25:27.314Z,998.57
2017-12-16T04:26:27.304Z,998.65
2017-12-16T04:27:27.304Z,998.63
2017-12-16T04:28:27.298Z,998.64
2017-12-16T04:29:27.296Z,998.65
2017-12-16T04:30:27.288Z,998.64
2017-12-16T04:31:27.289Z,998.62
2017-12-16T04:32:27.279Z,998.66
2017-12-16T04:33:27.276Z,998.67
2017-12-16T04:34:27.273Z,998.68
2017-12-16T04:35:27.268Z,998.70
2017-12-16T04:36:27.264Z,998.68
2017-12-16T04:37:27.262Z,998.68
2017-12-16T04:38:27.260Z,998.70
2017-12-16T04:39:27.256Z,998.69
2017-12-16T04:40:27.246Z,998.68
2017-12-16T04:41:27.248Z,998.70
2017-12-16T04:42:27.236Z,998.69
2017-12-16T04:43:27.235Z,998.69
2017-12-16T04:44:27.232Z,998.72
2017-12-16T04:45:27.231Z,998.67
2017-12-16T04:46:27.224Z,998.69
2017-12-16T04:47:27.216Z,998.72
2017-12-16T04:48:27.215Z,998.72
2017-12-16T04:49:27.208Z,998.79
2017-12-16T04:50:27.220Z,998.77
2017-12-16T04:51:27.202Z,998.76
2017-12-16T04:52:27.199Z,998.74
2017-12-16T04:53:27.194Z,998.83
2017-12-16T04:54:27.186Z,998.78
2017-12-16T04:55:27.184Z,998.79
2017-12-16T04:56:27.189Z,998.82
2017-12-16T04:57:27.180Z,998.86
2017-12-16T04:58:27.172Z,998.89
2017-12-16T04:59:27.170Z,998.90
2017-12-16T05:00:27.196Z,998.89
2017-12-16T05:01:27.165Z,998.88
2017-12-16T05:02:27.161Z,998.89
2017-12-16T05:03:27.159Z,998.91
2017-12-16T05:04:27.143Z,998.93
2017-12-16T05:05:27.142Z,998.91
2017-12-16T05:06:27.142Z,998.92
2017-12-16T05:07:27.137Z,998.91
2017-12-16T05:08:27.135Z,998.90
2017-12-16T05:09:27.132Z,998.91
2017-12-16T05:10:27.124Z,998.92
2017-12-16T05:11:27.128Z,998.92
2017-12-16T05:12:27.113Z,998.95
2017-12-16T05:13:27.112Z,998.97
2017-12-16T05:14:27.103Z,998.94
2017-12-16T05:15:27.104Z,998.96
2017-12-16T05:16:27.096Z,998.98
2017-12-16T05:17:27.093Z,998.93
2017-12-16T05:18:27.086Z,998.91
2017-12-16T05:19:27.084Z,998.90
2017-12-16T05:20:27.079Z,998.92
2017-12-16T05:21:27.078Z,998.90
2017-12-16T05:22:27.075Z,998.90
2017-12-16T05:23:27.072Z,998.92
2017-12-16T05:24:27.060Z,998.90
2017-12-16T05:25:27.068Z,998.92
2017-12-16T05:26:27.055Z,998.94
2017-12-16T05:27:27.049Z,998.95
2017-12-16T05:28:27.048Z,999.00
2017-12-16T05:29:27.042Z,998.99
2017-12-16T05:30:27.040Z,999.03
2017-12-16T05:31:27.033Z,999.07
2017-12-16T05:32:27.031Z,999.05
2017-12-16T05:33:27.100Z,999.10
2017-12-16T05:34:27.026Z,999.10
2017-12-16T05:35:27.024Z,999.09
2017-12-16T05:36:27.021Z,999.11
2017-12-16T05:37:27.021Z,999.08
2017-12-16T05:38:27.006Z,999.06
2017-12-16T05:39:27.003Z,999.08
2017-12-16T05:40:27.003Z,999.07
2017-12-16T05:41:27.000Z,999.05
2017-12-16T05:42:26.994Z,999.08
2017-12-16T05:43:26.986Z,999.04
2017-12-16T05:44:26.982Z,999.07
2017-12-16T05:45:26.983Z,999.06
2017-12-16T05:46:26.982Z,999.08
2017-12-16T05:47:26.973Z,999.09
2017-12-16T05:48:26.978Z,999.09
2017-12-16T05:49:26.966Z,999.11
2017-12-16T05:50:26.962Z,999.16
2017-12-16T05:51:26.958Z,999.16
2017-12-16T05:52:26.952Z,999.12
2017-12-16T05:53:26.953Z,999.19
2017-12-16T05:54:26.942Z,999.19
2017-12-16T05:55:26.938Z,999.23
2017-12-16T05:56:26.935Z,999.24
2017-12-16T05:57:26.932Z,999.26
2017-12-16T05:58:26.937Z,999.25
2017-12-16T05:59:26.921Z,999.25
2017-12-16T06:00:26.922Z,999.26
2017-12-16T06:01:26.917Z,999.27
2017-12-16T06:02:26.912Z,999.24
2017-12-16T06:03:26.912Z,999.27
2017-12-16T06:04:26.909Z,999.28
2017-12-16T06:05:26.902Z,999.27
2017-12-16T06:06:26.901Z,999.26
2017-12-16T06:07:26.894Z,999.29
2017-12-16T06:08:26.891Z,999.30
2017-12-16T06:09:26.892Z,999.29
2017-12-16T06:10:26.892Z,999.29
2017-12-16T06:11:26.878Z,999.28
2017-12-16T06:12:26.872Z,999.29
2017-12-16T06:13:26.870Z,999.29
2017-12-16T06:14:26.876Z,999.27
2017-12-16T06:15:26.861Z,999.31
2017-12-16T06:16:26.854Z,999.28
2017-12-16T06:17:26.855Z,999.29
2017-12-16T06:18:26.854Z,999.29
2017-12-16T06:19:26.850Z,999.28
2017-12-16T06:20:26.843Z,999.27
2017-12-16T06:21:26.840Z,999.27
2017-12-16T06:22:26.835Z,999.26
2017-12-16T06:23:26.829Z,999.27
2017-12-16T06:24:26.828Z,999.30
2017-12-16T06:25:26.820Z,999.30
2017-12-16T06:26:26.824Z,999.29
2017-12-16T06:27:26.826Z,999.33
2017-12-16T06:28:26.814Z,999.33
2017-12-16T06:29:26.806Z,999.32
2017-12-16T06:30:26.802Z,999.32
2017-12-16T06:31:26.797Z,999.27
2017-12-16T06:32:26.792Z,999.32
2017-12-16T06:33:26.792Z,999.32
2017-12-16T06:34:26.795Z,999.31
2017-12-16T06:35:26.783Z,999.30
2017-12-16T06:36:26.776Z,999.29
2017-12-16T06:37:26.773Z,999.33
2017-12-16T06:38:26.770Z,999.30
2017-12-16T06:39:26.779Z,999.30
2017-12-16T06:40:26.763Z,999.33
2017-12-16T06:41:26.767Z,999.32
2017-12-16T06:42:26.758Z,999.33
2017-12-16T06:43:26.788Z,999.34
2017-12-16T06:44:26.747Z,999.35
2017-12-16T06:45:26.746Z,999.37
2017-12-16T06:46:26.739Z,999.36
2017-12-16T06:47:26.748Z,999.36
2017-12-16T06:48:26.731Z,999.36
2017-12-16T06:49:26.728Z,999.42
2017-12-16T06:50:26.720Z,999.39
2017-12-16T06:51:26.722Z,999.39
2017-12-16T06:52:26.715Z,999.43
2017-12-16T06:53:26.719Z,999.43
2017-12-16T06:54:26.706Z,999.45
2017-12-16T06:55:26.701Z,999.49
2017-12-16T06:56:26.707Z,999.46
2017-12-16T06:57:26.698Z,999.52
2017-12-16T06:58:26.691Z,999.50
2017-12-16T06:59:26.691Z,999.52
2017-12-16T07:00:26.682Z,999.55
2017-12-16T07:01:26.683Z,999.57
2017-12-16T07:02:26.679Z,999.58
2017-12-16T07:03:26.672Z,999.57
2017-12-16T07:04:26.667Z,999.62
2017-12-16T07:05:26.666Z,999.59
2017-12-16T07:06:26.660Z,999.63
2017-12-16T07:07:26.654Z,999.62
2017-12-16T07:08:26.654Z,999.61
2017-12-16T07:09:26.653Z,999.62
2017-12-16T07:10:26.644Z,999.64
2017-12-16T07:11:26.640Z,999.65
2017-12-16T07:12:26.643Z,999.64
2017-12-16T07:13:26.642Z,999.67
2017-12-16T07:14:26.628Z,999.69
2017-12-16T07:15:26.624Z,999.68
2017-12-16T07:16:26.668Z,999.68
2017-12-16T07:17:26.620Z,999.72
2017-12-16T07:18:26.613Z,999.74
2017-12-16T07:19:26.609Z,999.75
2017-12-16T07:20:26.604Z,999.75
2017-12-16T07:21:26.601Z,999.79
2017-12-16T07:22:26.599Z,999.81
2017-12-16T07:23:26.594Z,999.89
2017-12-16T07:24:26.587Z,999.83
2017-12-16T07:25:26.585Z,999.86
2017-12-16T07:26:26.577Z,999.88
2017-12-16T07:27:26.580Z,999.91
2017-12-16T07:28:26.571Z,999.93
2017-12-16T07:29:26.569Z,999.94
2017-12-16T07:30:26.563Z,999.95
2017-12-16T07:31:26.564Z,999.93
2017-12-16T07:32:26.554Z,999.95
2017-12-16T07:33:26.549Z,999.94
2017-12-16T07:34:26.543Z,999.95
2017-12-16T07:35:26.541Z,1000.01
2017-12-16T07:36:26.538Z,999.97
2017-12-16T07:37:26.529Z,999.98
2017-12-16T07:38:26.530Z,999.98
2017-12-16T07:39:26.522Z,1000.00
2017-12-16T07:40:26.520Z,1000.02
2017-12-16T07:41:26.518Z,1000.04
2017-12-16T07:42:26.518Z,1000.04
2017-12-16T07:43:26.506Z,1000.03
2017-12-16T07:44:26.507Z,1000.04
2017-12-16T07:45:26.608Z,1000.04
2017-12-16T07:46:26.492Z,1000.06
2017-12-16T07:47:26.488Z,1000.06
2017-12-16T07:48:26.487Z,1000.08
2017-12-16T07:49:26.481Z,1000.05
2017-12-16T07:50:26.481Z,1000.11
2017-12-16T07:51:26.498Z,1000.09
2017-12-16T07:52:26.463Z,1000.09
2017-12-16T07:53:26.467Z,1000.08
2017-12-16T07:54:26.455Z,1000.11
2017-12-16T07:55:26.457Z,1000.09
2017-12-16T07:56:26.450Z,1000.10
2017-12-16T07:57:26.446Z,1000.14
2017-12-16T07:58:26.441Z,1000.16
2017-12-16T07:59:26.440Z,1000.15
2017-12-16T08:00:26.432Z,1000.14
2017-12-16T08:01:26.429Z,1000.11
2017-12-16T08:02:26.424Z,1000.13
2017-12-16T08:03:26.420Z,1000.18
2017-12-16T08:04:26.416Z,1000.21
2017-12-16T08:05:26.414Z,1000.22
2017-12-16T08:06:26.410Z,1000.18
2017-12-16T08:07:26.404Z,1000.20
2017-12-16T08:08:26.401Z,1000.17
2017-12-16T08:09:26.395Z,1000.24
2017-12-16T08:10:26.392Z,1000.24
2017-12-16T08:11:26.392Z,1000.22
2017-12-16T08:12:26.384Z,1000.24
2017-12-16T08:13:26.389Z,1000.22
2017-12-16T08:14:26.377Z,1000.18
2017-12-16T08:15:26.537Z,1000.16
2017-12-16T08:16:26.366Z,1000.12
2017-12-16T08:17:26.362Z,1000.08
2017-12-16T08:18:26.358Z,1000.09
2017-12-16T08:19:26.353Z,1000.11
2017-12-16T08:20:26.352Z,1000.14
2017-12-16T08:21:26.345Z,1000.11
2017-12-16T08:22:26.395Z,1000.19
2017-12-16T08:23:26.343Z,1000.17
2017-12-16T08:24:26.386Z,1000.23
2017-12-16T08:25:26.335Z,1000.29
2017-12-16T08:26:26.327Z,1000.32
2017-12-16T08:27:26.320Z,1000.32
2017-12-16T08:28:26.320Z,1000.36
2017-12-16T08:29:26.313Z,1000.36
2017-12-16T08:30:26.311Z,1000.42
2017-12-16T08:31:26.305Z,1000.44
2017-12-16T08:32:26.302Z,1000.45
2017-12-16T08:33:26.294Z,1000.47
2017-12-16T08:34:26.293Z,1000.52
2017-12-16T08:35:26.292Z,1000.53
2017-12-16T08:36:26.284Z,1000.56
2017-12-16T08:37:26.288Z,1000.58
2017-12-16T08:38:26.276Z,1000.59
2017-12-16T08:39:26.272Z,1000.61
2017-12-16T08:40:26.266Z,1000.60
2017-12-16T08:41:26.265Z,1000.62
2017-12-16T08:42:26.263Z,1000.64
2017-12-16T08:43:26.255Z,1000.67
2017-12-16T08:44:26.250Z,1000.66
2017-12-16T08:45:26.248Z,1000.66
2017-12-16T08:46:26.239Z,1000.67
2017-12-16T08:47:26.242Z,1000.70
2017-12-16T08:48:26.230Z,1000.67
2017-12-16T08:49:26.230Z,1000.66
2017-12-16T08:50:26.226Z,1000.66
2017-12-16T08:51:26.224Z,1000.69
2017-12-16T08:52:26.213Z,1000.72
2017-12-16T08:53:26.216Z,1000.71
2017-12-16T08:54:26.206Z,1000.70
2017-12-16T08:55:26.211Z,1000.71
2017-12-16T08:56:26.199Z,1000.69
2017-12-16T08:57:26.196Z,1000.71
2017-12-16T08:58:26.190Z,1000.71
2017-12-16T08:59:26.182Z,1000.73
2017-12-16T09:00:26.183Z,1000.78
2017-12-16T09:01:26.174Z,1000.82
2017-12-16T09:02:26.174Z,1000.83
2017-12-16T09:03:26.166Z,1000.89
2017-12-16T09:04:26.161Z,1000.94
2017-12-16T09:05:26.160Z,1000.96
2017-12-16T09:06:26.154Z,1000.98
2017-12-16T09:07:26.149Z,1000.99
2017-12-16T09:08:26.143Z,1001.06
2017-12-16T09:09:26.143Z,1001.01
2017-12-16T09:10:26.147Z,1001.06
2017-12-16T09:11:26.131Z,1001.07
2017-12-16T09:12:26.155Z,1001.11
2017-12-16T09:13:26.124Z,1001.17
2017-12-16T09:14:26.121Z,1001.18
2017-12-16T09:15:26.125Z,1001.18
2017-12-16T09:16:26.108Z,1001.20
2017-12-16T09:17:26.105Z,1001.25
2017-12-16T09:18:26.105Z,1001.25
2017-12-16T09:19:26.095Z,1001.22
2017-12-16T09:20:26.098Z,1001.26
2017-12-16T09:21:26.084Z,1001.24
2017-12-16T09:22:26.084Z,1001.27
2017-12-16T09:23:26.085Z,1001.27
2017-12-16T09:24:26.075Z,1001.23
2017-12-16T09:25:26.070Z,1001.27
2017-12-16T09:26:26.068Z,1001.23
2017-12-16T09:27:26.061Z,1001.21
2017-12-16T09:28:26.061Z,1001.28
2017-12-16T09:29:26.054Z,1001.28
2017-12-16T09:30:26.053Z,1001.26
2017-12-16T09:31:26.047Z,1001.31
2017-12-16T09:32:26.047Z,1001.33
2017-12-16T09:33:26.034Z,1001.33
2017-12-16T09:34:26.034Z,1001.32
2017-12-16T09:35:26.035Z,1001.34
2017-12-16T09:36:26.022Z,1001.34
2017-12-16T09:37:26.018Z,1001.35
2017-12-16T09:38:26.013Z,1001.31
2017-12-16T09:39:26.021Z,1001.36
2017-12-16T09:40:26.009Z,1001.37
2017-12-16T09:41:26.002Z,1001.40
2017-12-16T09:42:25.998Z,1001.40
2017-12-16T09:43:25.989Z,1001.43
2017-12-16T09:44:25.988Z,1001.45
2017-12-16T09:45:25.993Z,1001.43
2017-12-16T09:46:25.980Z,1001.45
2017-12-16T09:47:25.975Z,1001.45
2017-12-16T09:48:25.973Z,1001.45
2017-12-16T09:49:25.968Z,1001.46
2017-12-16T09:50:25.961Z,1001.42
2017-12-16T09:52:58.070Z,1001.52
2017-12-16T09:53:58.031Z,1001.52
2017-12-16T09:54:58.025Z,1001.49
2017-12-16T09:55:58.017Z,1001.49
2017-12-16T09:56:58.026Z,1001.49
2017-12-16T09:57:58.008Z,1001.53
2017-12-16T09:58:58.005Z,1001.54
2017-12-16T09:59:58.012Z,1001.52
2017-12-16T10:00:57.996Z,1001.48
2017-12-16T10:01:57.999Z,1001.51
2017-12-16T10:02:58.005Z,1001.44
2017-12-16T10:03:57.985Z,1001.51
2017-12-16T10:04:57.985Z,1001.46
2017-12-16T10:05:57.980Z,1001.47
2017-12-16T10:06:57.979Z,1001.47
2017-12-16T10:07:57.976Z,1001.47
2017-12-16T10:08:57.978Z,1001.52
2017-12-16T10:09:57.963Z,1001.48
2017-12-16T10:10:57.955Z,1001.49
2017-12-16T10:11:57.953Z,1001.51
2017-12-16T10:12:57.957Z,1001.53
2017-12-16T10:13:57.949Z,1001.52
2017-12-16T10:14:57.940Z,1001.53
2017-12-16T10:15:57.935Z,1001.48
2017-12-16T10:16:57.934Z,1001.50
2017-12-16T10:17:57.940Z,1001.49
2017-12-16T10:18:57.928Z,1001.55
2017-12-16T10:19:57.919Z,1001.49
2017-12-16T10:20:57.929Z,1001.51
2017-12-16T10:21:57.914Z,1001.54
2017-12-16T10:22:57.912Z,1001.52
2017-12-16T10:23:57.911Z,1001.52
2017-12-16T10:24:57.899Z,1001.53
2017-12-16T10:25:57.894Z,1001.48
2017-12-16T10:26:57.897Z,1001.52
2017-12-16T10:27:57.886Z,1001.56
2017-12-16T10:28:57.892Z,1001.52
2017-12-16T10:29:57.882Z,1001.55
2017-12-16T10:30:57.878Z,1001.52
2017-12-16T10:31:57.872Z,1001.53
2017-12-16T10:32:57.863Z,1001.52
2017-12-16T10:33:57.864Z,1001.55
2017-12-16T10:34:57.870Z,1001.54
2017-12-16T10:35:57.926Z,1001.55
2017-12-16T10:36:57.853Z,1001.54
2017-12-16T10:37:57.851Z,1001.56
2017-12-16T10:38:57.845Z,1001.53
2017-12-16T10:39:57.851Z,1001.57
2017-12-16T10:40:57.840Z,1001.55
2017-12-16T10:41:57.835Z,1001.58
2017-12-16T10:42:57.826Z,1001.55
2017-12-16T10:43:57.824Z,1001.60
2017-12-16T10:44:57.819Z,1001.57
2017-12-16T10:45:57.823Z,1001.60
2017-12-16T10:46:57.818Z,1001.58
2017-12-16T10:47:57.812Z,1001.62
2017-12-16T10:48:57.805Z,1001.57
2017-12-16T10:49:57.859Z,1001.61
2017-12-16T10:50:57.919Z,1001.59
2017-12-16T10:51:57.793Z,1001.60
2017-12-16T10:52:57.791Z,1001.59
2017-12-16T10:53:57.781Z,1001.55
2017-12-16T10:54:57.817Z,1001.55
2017-12-16T10:55:57.776Z,1001.62
2017-12-16T10:56:57.775Z,1001.58
2017-12-16T10:57:57.766Z,1001.63
2017-12-16T10:58:57.763Z,1001.62
2017-12-16T10:59:57.765Z,1001.58
2017-12-16T11:00:57.760Z,1001.58
2017-12-16T11:01:57.753Z,1001.65
2017-12-16T11:02:57.757Z,1001.62
2017-12-16T11:03:57.746Z,1001.62
2017-12-16T11:04:57.747Z,1001.65
2017-12-16T11:05:57.734Z,1001.65
2017-12-16T11:06:57.735Z,1001.68
2017-12-16T11:07:57.737Z,1001.66
2017-12-16T11:08:57.730Z,1001.64
2017-12-16T11:09:57.721Z,1001.69
2017-12-16T11:10:57.725Z,1001.63
2017-12-16T11:11:57.715Z,1001.62
2017-12-16T11:12:57.715Z,1001.69
2017-12-16T11:13:57.714Z,1001.69
2017-12-16T11:14:57.708Z,1001.69
2017-12-16T11:15:57.701Z,1001.74
2017-12-16T11:16:57.715Z,1001.67
2017-12-16T11:17:57.694Z,1001.69
2017-12-16T11:18:57.695Z,1001.69
2017-12-16T11:19:57.693Z,1001.67
2017-12-16T11:20:57.687Z,1001.69
2017-12-16T11:21:57.685Z,1001.69
2017-12-16T11:22:57.687Z,1001.70
2017-12-16T11:23:57.675Z,1001.66
2017-12-16T11:24:57.670Z,1001.69
2017-12-16T11:25:57.669Z,1001.71
2017-12-16T11:26:57.664Z,1001.66
2017-12-16T11:27:57.658Z,1001.70
2017-12-16T11:28:57.652Z,1001.72
2017-12-16T11:29:57.653Z,1001.75
2017-12-16T11:30:57.645Z,1001.70
2017-12-16T11:31:57.644Z,1001.78
2017-12-16T11:32:57.638Z,1001.75
2017-12-16T11:33:57.634Z,1001.79
2017-12-16T11:34:57.635Z,1001.76
2017-12-16T11:35:57.634Z,1001.79
2017-12-16T11:36:57.624Z,1001.79
2017-12-16T11:37:57.622Z,1001.80
2017-12-16T11:38:57.617Z,1001.75
2017-12-16T11:39:57.614Z,1001.76
2017-12-16T11:40:57.610Z,1001.80
2017-12-16T11:41:57.610Z,1001.78
2017-12-16T11:42:57.608Z,1001.80
2017-12-16T11:43:57.603Z,1001.83
2017-12-16T11:44:57.599Z,1001.83
2017-12-16T11:45:57.592Z,1001.79
2017-12-16T11:46:57.586Z,1001.85
2017-12-16T11:47:57.586Z,1001.89
2017-12-16T11:48:57.578Z,1001.93
2017-12-16T11:49:57.580Z,1001.94
2017-12-16T11:50:57.581Z,1001.90
2017-12-16T11:51:57.573Z,1001.88
2017-12-16T11:52:57.571Z,1001.97
2017-12-16T11:53:57.564Z,1001.93
2017-12-16T11:54:57.562Z,1001.91
2017-12-16T11:55:57.566Z,1001.96
2017-12-16T11:56:57.550Z,1001.99
2017-12-16T11:57:57.548Z,1001.98
2017-12-16T11:58:57.544Z,1001.99
2017-12-16T11:59:57.539Z,1002.03
2017-12-16T12:00:57.539Z,1002.03
2017-12-16T12:01:57.533Z,1002.04
2017-12-16T12:02:57.532Z,1002.10
2017-12-16T12:03:57.527Z,1002.10
2017-12-16T12:04:57.524Z,1002.08
2017-12-16T12:05:57.528Z,1002.14
2017-12-16T12:06:57.519Z,1002.11
2017-12-16T12:07:57.513Z,1002.09
2017-12-16T12:08:57.511Z,1002.10
2017-12-16T12:09:57.509Z,1002.11
2017-12-16T12:10:57.511Z,1002.12
2017-12-16T12:11:57.506Z,1002.14
2017-12-16T12:12:57.495Z,1002.10
2017-12-16T12:13:57.489Z,1002.12
2017-12-16T12:14:57.490Z,1002.15
2017-12-16T12:15:57.482Z,1002.15
2017-12-16T12:16:57.482Z,1002.14
2017-12-16T12:17:57.478Z,1002.14
2017-12-16T12:18:57.474Z,1002.18
2017-12-16T12:19:57.476Z,1002.19
2017-12-16T12:20:57.466Z,1002.24
2017-12-16T12:21:57.463Z,1002.21
2017-12-16T12:22:57.460Z,1002.22
2017-12-16T12:23:57.459Z,1002.23
2017-12-16T12:24:57.451Z,1002.25
2017-12-16T12:25:57.456Z,1002.25
2017-12-16T12:26:57.469Z,1002.25
2017-12-16T12:27:57.447Z,1002.28
2017-12-16T12:28:57.445Z,1002.24
2017-12-16T12:29:57.437Z,1002.26
2017-12-16T12:30:57.434Z,1002.23
2017-12-16T12:31:57.431Z,1002.27
2017-12-16T12:32:57.429Z,1002.25
2017-12-16T12:33:57.423Z,1002.26